Time;durP1;ratioP1;P1;durP2;ratioP2;P2;SDS_P1;SDS_P2;PMS_P1;PMS_P2;Temp;Humidity;BMP_temperature;BMP_pressure;BME280_temperature;BME280_humidity;BME280_pressure;Samples;Min_cycle;Max_cycle;Signal;HPM_P1;HPM_P2
2022/11/16 00:01:41;;;;;;;11.27;6.80;;;19.90;57.00;;;;;;5005143;28;20468;-81
2022/11/16 00:04:10;;;;;;;10.33;6.40;;;20.00;57.20;;;;;;4999828;28;20496;-81
2022/11/16 00:06:38;;;;;;;7.90;6.20;;;19.90;57.20;;;;;;4988992;28;20466;-83
2022/11/16 00:09:21;;;;;;;8.00;6.40;;;19.90;57.10;;;;;;4999054;28;20480;-82
2022/11/16 00:11:50;;;;;;;9.07;6.40;;;19.90;57.10;;;;;;5005851;28;20425;-82
2022/11/16 00:14:19;;;;;;;16.90;7.23;;;19.90;57.10;;;;;;5008447;28;20446;-82
2022/11/16 00:16:47;;;;;;;7.53;6.50;;;20.00;57.80;;;;;;5014041;28;20440;-84
2022/11/16 00:19:15;;;;;;;8.67;7.40;;;19.90;57.20;;;;;;5012034;28;20441;-83
2022/11/16 00:21:43;;;;;;;7.83;6.20;;;19.90;57.20;;;;;;5013319;28;20437;-84
2022/11/16 00:24:12;;;;;;;9.17;7.07;;;20.00;57.30;;;;;;5005557;28;20484;-82
2022/11/16 00:26:40;;;;;;;10.13;7.53;;;20.00;57.30;;;;;;5005147;28;20472;-81
2022/11/16 00:29:12;;;;;;;11.70;7.73;;;20.00;57.10;;;;;;5013498;28;20427;-85
2022/11/16 00:31:41;;;;;;;9.30;7.10;;;19.90;57.20;;;;;;4998835;28;20441;-84
2022/11/16 00:34:09;;;;;;;8.93;7.33;;;19.90;57.20;;;;;;5009552;28;20420;-84
2022/11/16 00:36:37;;;;;;;8.63;7.20;;;19.90;57.30;;;;;;5017085;28;20464;-79
2022/11/16 00:39:05;;;;;;;9.10;7.30;;;19.90;57.20;;;;;;5016943;28;20510;-79
2022/11/16 00:41:33;;;;;;;8.90;7.60;;;20.00;57.30;;;;;;5008277;28;20450;-79
2022/11/16 00:44:02;;;;;;;8.97;7.43;;;20.00;57.20;;;;;;5013902;28;20525;-79
2022/11/16 00:46:29;;;;;;;10.40;7.33;;;19.90;57.20;;;;;;5016243;28;20438;-80
2022/11/16 00:48:59;;;;;;;9.23;7.30;;;19.90;57.20;;;;;;5015360;28;20437;-79
2022/11/16 00:51:27;;;;;;;9.20;7.57;;;19.90;57.30;;;;;;5014004;28;20445;-79
2022/11/16 00:53:55;;;;;;;9.00;7.17;;;19.90;57.40;;;;;;5010487;28;20457;-79
2022/11/16 00:56:23;;;;;;;11.07;7.50;;;19.90;57.40;;;;;;5005349;28;20441;-80
2022/11/16 00:58:51;;;;;;;11.60;7.50;;;19.90;57.40;;;;;;5008852;28;20441;-79
2022/11/16 01:01:19;;;;;;;9.80;7.70;;;19.90;57.40;;;;;;5002698;28;20451;-79
2022/11/16 01:03:48;;;;;;;12.33;7.90;;;19.90;57.40;;;;;;4997144;28;20449;-79
2022/11/16 01:06:17;;;;;;;8.20;6.93;;;19.90;57.50;;;;;;4995416;28;20468;-79
2022/11/16 01:08:46;;;;;;;8.97;7.17;;;19.90;57.40;;;;;;4993699;28;20446;-79
2022/11/16 01:14:01;;;;;;;10.27;7.60;;;19.90;57.40;;;;;;4995146;28;20441;-79
2022/11/16 01:16:29;;;;;;;9.90;7.83;;;19.90;57.60;;;;;;5005451;28;20457;-79
2022/11/16 01:18:58;;;;;;;9.10;7.23;;;19.80;57.40;;;;;;4995376;28;20445;-79
2022/11/16 01:21:27;;;;;;;15.20;9.43;;;19.80;57.50;;;;;;4996012;28;20437;-79
2022/11/16 01:23:55;;;;;;;11.63;8.77;;;19.90;57.50;;;;;;4995599;28;20453;-79
2022/11/16 01:26:27;;;;;;;12.50;9.13;;;19.80;57.50;;;;;;4988694;28;20495;-79
2022/11/16 01:28:55;;;;;;;12.23;8.30;;;19.80;57.60;;;;;;4992727;28;20457;-79
2022/11/16 01:31:22;;;;;;;12.10;8.77;;;19.80;57.70;;;;;;4994112;28;20445;-79
2022/11/16 01:33:50;;;;;;;13.17;9.10;;;19.80;57.60;;;;;;4994710;28;20449;-79
2022/11/16 01:36:18;;;;;;;10.30;8.37;;;19.80;57.80;;;;;;4994179;28;20464;-79
2022/11/16 01:38:48;;;;;;;12.00;8.80;;;19.80;57.80;;;;;;4994797;28;20445;-79
2022/11/16 01:41:17;;;;;;;10.43;7.70;;;19.80;57.70;;;;;;4994036;28;20460;-81
2022/11/16 01:43:50;;;;;;;10.67;8.00;;;19.80;57.70;;;;;;4993539;28;20460;-80
2022/11/16 01:46:18;;;;;;;10.57;8.27;;;19.80;57.80;;;;;;4988242;28;20477;-80
2022/11/16 01:48:47;;;;;;;11.83;8.30;;;19.80;57.80;;;;;;4995993;28;20448;-80
2022/11/16 01:51:15;;;;;;;11.37;8.30;;;19.80;57.80;;;;;;4996216;28;20548;-80
2022/11/16 01:53:42;;;;;;;11.13;8.30;;;19.80;57.80;;;;;;4995397;28;20457;-79
2022/11/16 01:56:12;;;;;;;8.13;6.97;;;19.80;57.80;;;;;;4996200;28;20453;-79
2022/11/16 01:58:40;;;;;;;10.00;7.97;;;19.80;57.80;;;;;;4999910;28;20444;-80
2022/11/16 02:01:08;;;;;;;9.50;7.70;;;19.80;57.80;;;;;;4995166;28;20460;-80
2022/11/16 02:03:37;;;;;;;11.50;8.53;;;19.80;57.90;;;;;;4998261;28;20444;-80
2022/11/16 02:06:19;;;;;;;11.77;8.27;;;19.80;57.90;;;;;;4997710;28;20477;-80
2022/11/16 02:11:52;;;;;;;10.00;7.30;;;19.80;57.90;;;;;;4990519;28;20453;-80
2022/11/16 02:14:32;;;;;;;8.90;6.77;;;19.80;57.90;;;;;;4995281;28;20435;-80
2022/11/16 02:17:05;;;;;;;12.10;7.60;;;19.80;58.00;;;;;;4998272;28;20449;-79
2022/11/16 02:20:02;;;;;;;10.83;7.63;;;19.80;57.90;;;;;;4995768;28;20449;-79
2022/11/16 02:22:38;;;;;;;9.53;7.20;;;19.80;57.80;;;;;;4994160;28;20457;-79
2022/11/16 02:25:08;;;;;;;10.13;7.37;;;19.80;58.00;;;;;;4995886;28;20485;-79
2022/11/16 02:27:57;;;;;;;7.70;6.47;;;19.70;58.00;;;;;;4993999;28;20460;-79
2022/11/16 02:30:27;;;;;;;9.10;7.00;;;19.80;58.00;;;;;;4998214;28;20515;-79
2022/11/16 02:32:57;;;;;;;7.83;7.03;;;19.70;58.00;;;;;;4995254;28;20457;-79
2022/11/16 02:35:27;;;;;;;9.20;6.97;;;19.80;58.00;;;;;;4998248;28;20484;-79
2022/11/16 02:37:57;;;;;;;8.40;6.77;;;19.70;58.00;;;;;;4997593;28;20457;-79
2022/11/16 02:40:26;;;;;;;9.00;6.90;;;19.80;58.10;;;;;;4995125;28;20461;-79
2022/11/16 02:42:57;;;;;;;8.60;6.50;;;19.70;58.00;;;;;;4997191;28;20453;-79
2022/11/16 02:49:15;;;;;;;7.10;6.27;;;19.80;58.10;;;;;;4994296;28;20415;-79
2022/11/16 02:51:43;;;;;;;8.77;6.10;;;19.70;58.20;;;;;;4996266;28;20456;-79
2022/11/16 02:54:14;;;;;;;8.30;7.10;;;19.70;58.20;;;;;;4996383;28;20468;-80
2022/11/16 02:56:43;;;;;;;7.37;6.17;;;19.70;58.10;;;;;;4989678;28;20476;-79
2022/11/16 02:59:11;;;;;;;8.70;6.57;;;19.70;58.10;;;;;;4992987;28;20461;-80
2022/11/16 03:01:45;;;;;;;6.50;5.50;;;19.70;58.20;;;;;;4996132;28;20460;-79
2022/11/16 03:04:16;;;;;;;7.67;6.63;;;19.70;58.30;;;;;;4995415;28;20462;-79
2022/11/16 03:06:44;;;;;;;7.40;5.83;;;19.70;58.20;;;;;;4994026;28;20479;-79
2022/11/16 03:09:12;;;;;;;8.17;6.50;;;19.70;58.20;;;;;;4998649;28;20501;-79
2022/11/16 03:11:59;;;;;;;7.63;6.60;;;19.70;58.30;;;;;;4997482;28;20464;-80
2022/11/16 03:14:29;;;;;;;7.00;6.00;;;19.70;58.20;;;;;;4996574;28;20461;-79
2022/11/16 03:16:58;;;;;;;8.07;6.50;;;19.70;58.30;;;;;;4993747;28;20461;-80
2022/11/16 03:19:29;;;;;;;8.80;5.83;;;19.70;58.20;;;;;;4994486;28;20517;-80
2022/11/16 03:21:58;;;;;;;7.20;5.90;;;19.70;58.20;;;;;;4994688;28;20453;-79
2022/11/16 03:24:27;;;;;;;9.40;6.03;;;19.70;58.30;;;;;;4990792;28;20558;-79
2022/11/16 03:26:58;;;;;;;6.33;5.60;;;19.70;58.30;;;;;;4998528;28;20473;-80
2022/11/16 03:29:29;;;;;;;5.90;5.30;;;19.70;58.30;;;;;;4998210;28;20445;-80
2022/11/16 03:31:58;;;;;;;5.90;5.23;;;19.70;58.20;;;;;;4998722;28;20452;-80
2022/11/16 03:34:30;;;;;;;6.93;5.57;;;19.60;58.20;;;;;;4997809;28;20464;-81
2022/11/16 03:36:58;;;;;;;7.30;6.03;;;19.70;58.30;;;;;;4996771;28;20452;-80
2022/11/16 03:39:28;;;;;;;7.03;5.50;;;19.60;58.20;;;;;;4994614;28;20460;-81
2022/11/16 03:41:56;;;;;;;6.30;5.70;;;19.60;58.30;;;;;;4993892;28;20457;-81
2022/11/16 03:44:24;;;;;;;6.17;5.50;;;19.60;58.30;;;;;;4995463;28;20461;-81
2022/11/16 03:46:52;;;;;;;7.73;5.70;;;19.60;58.40;;;;;;4995776;28;20469;-82
2022/11/16 03:49:21;;;;;;;7.17;5.60;;;19.60;58.40;;;;;;4994995;28;20461;-82
2022/11/16 03:51:50;;;;;;;10.87;5.37;;;19.60;59.00;;;;;;4995903;28;20458;-82
2022/11/16 03:54:19;;;;;;;10.03;5.27;;;19.60;58.40;;;;;;4994560;28;20464;-81
2022/11/16 03:56:47;;;;;;;6.43;5.77;;;19.60;58.40;;;;;;4994399;28;20480;-81
2022/11/16 03:59:15;;;;;;;5.53;5.00;;;19.50;58.40;;;;;;4995538;28;20468;-82
2022/11/16 04:01:43;;;;;;;6.63;5.77;;;19.60;58.50;;;;;;4995995;28;20951;-82
2022/11/16 04:24:10;;;;;;;5.37;4.87;;;19.60;58.40;;;;;;4993758;28;20461;-81
2022/11/16 04:28:11;;;;;;;7.30;5.37;;;19.40;58.70;;;;;;4992796;28;20481;-81
2022/11/16 04:29:08;;;;;;;5.40;4.83;;;19.40;58.70;;;;;;4994194;28;20465;-81
2022/11/16 04:39:54;;;;;;;5.57;4.87;;;19.40;58.70;;;;;;4987009;28;20453;-81
2022/11/16 04:42:23;;;;;;;5.03;4.60;;;19.40;58.80;;;;;;4995505;28;20466;-81
2022/11/16 04:47:36;;;;;;;6.10;4.97;;;19.40;58.70;;;;;;4995552;28;20480;-81
2022/11/16 04:50:05;;;;;;;5.63;5.13;;;19.40;58.80;;;;;;4992602;28;20511;-81
2022/11/16 04:52:33;;;;;;;4.80;4.40;;;19.30;58.70;;;;;;4993934;28;20468;-81
2022/11/16 04:55:02;;;;;;;6.03;4.80;;;19.30;58.80;;;;;;4995306;28;20477;-81
2022/11/16 04:57:30;;;;;;;5.70;4.90;;;19.30;58.70;;;;;;4994344;28;20445;-81
2022/11/16 04:59:58;;;;;;;5.80;4.87;;;19.30;58.80;;;;;;4994925;28;20468;-79
2022/11/16 05:02:26;;;;;;;5.07;4.67;;;19.30;58.80;;;;;;4993257;28;20955;-79
2022/11/16 05:04:54;;;;;;;6.53;4.80;;;19.30;58.70;;;;;;4991255;28;20477;-79
2022/11/16 05:07:22;;;;;;;6.20;4.70;;;19.30;58.70;;;;;;4991095;28;20484;-78
2022/11/16 05:09:50;;;;;;;4.90;4.40;;;19.30;58.80;;;;;;4993483;28;20500;-81
2022/11/16 05:12:20;;;;;;;5.80;4.57;;;19.30;58.90;;;;;;4992691;28;20464;-81
2022/11/16 05:14:48;;;;;;;6.10;4.97;;;19.30;58.90;;;;;;4991566;28;20473;-80
2022/11/16 05:17:17;;;;;;;5.83;4.53;;;19.30;58.90;;;;;;4992648;28;20472;-80
2022/11/16 05:22:30;;;;;;;5.30;4.80;;;19.30;59.00;;;;;;4992426;28;20445;-80
2022/11/16 05:24:58;;;;;;;5.10;4.70;;;19.20;58.80;;;;;;4994725;28;20565;-81
2022/11/16 05:27:27;;;;;;;5.10;4.60;;;19.20;59.00;;;;;;4993970;28;20489;-80
2022/11/16 05:29:55;;;;;;;6.73;4.63;;;19.20;58.80;;;;;;4994420;28;20453;-79
2022/11/16 05:32:24;;;;;;;5.00;4.60;;;19.20;58.80;;;;;;4993156;28;20469;-79
2022/11/16 05:34:51;;;;;;;5.07;4.57;;;19.20;58.80;;;;;;4993419;28;20480;-80
2022/11/16 05:37:20;;;;;;;6.33;4.87;;;19.20;58.80;;;;;;4990846;28;20797;-80
2022/11/16 05:39:48;;;;;;;5.50;4.83;;;19.20;58.70;;;;;;4991611;28;20939;-80
2022/11/16 05:42:16;;;;;;;4.43;4.03;;;19.20;58.80;;;;;;4994117;28;20453;-80
2022/11/16 05:44:46;;;;;;;5.70;4.57;;;19.20;58.70;;;;;;4995149;28;20484;-80
2022/11/16 05:47:14;;;;;;;5.63;4.97;;;19.20;58.80;;;;;;4994082;28;20469;-80
2022/11/16 05:49:42;;;;;;;5.63;5.03;;;19.20;58.80;;;;;;4993358;28;21262;-80
2022/11/16 05:52:10;;;;;;;5.60;5.00;;;19.20;58.90;;;;;;4994087;28;20468;-80
2022/11/16 05:54:38;;;;;;;5.10;4.60;;;19.20;58.80;;;;;;4993832;28;20476;-80
2022/11/16 05:57:06;;;;;;;5.10;4.60;;;19.10;58.80;;;;;;4995287;28;20453;-80
2022/11/16 05:59:34;;;;;;;5.50;5.00;;;19.10;59.40;;;;;;4991805;28;20453;-81
2022/11/16 06:02:03;;;;;;;6.10;4.80;;;19.10;58.80;;;;;;4990291;28;20486;-81
2022/11/16 06:04:32;;;;;;;5.33;4.80;;;19.10;58.90;;;;;;4989886;28;20450;-81
2022/11/16 06:07:00;;;;;;;5.30;4.50;;;19.10;58.90;;;;;;4992743;28;20468;-80
2022/11/16 06:09:29;;;;;;;5.60;5.10;;;19.10;58.80;;;;;;4991208;28;21043;-80
2022/11/16 06:11:57;;;;;;;6.17;4.97;;;19.10;58.90;;;;;;4989931;28;20453;-80
2022/11/16 06:14:25;;;;;;;4.93;4.53;;;19.10;58.90;;;;;;4993227;28;20473;-80
2022/11/16 06:16:53;;;;;;;5.87;5.20;;;19.10;58.80;;;;;;4993849;28;20457;-79
2022/11/16 06:19:22;;;;;;;5.50;4.77;;;19.10;58.80;;;;;;4991868;28;20484;-80
2022/11/16 06:21:57;;;;;;;4.80;4.40;;;19.10;58.80;;;;;;4990749;28;20524;-80
2022/11/16 06:24:26;;;;;;;5.63;4.90;;;19.10;58.70;;;;;;4988132;28;20472;-80
2022/11/16 06:26:54;;;;;;;5.57;5.00;;;19.10;58.80;;;;;;4987450;28;20445;-80
2022/11/16 06:29:22;;;;;;;6.50;4.93;;;19.10;58.90;;;;;;4989918;28;20480;-80
2022/11/16 06:31:50;;;;;;;5.97;5.40;;;19.10;58.70;;;;;;4986887;28;20453;-80
2022/11/16 06:34:18;;;;;;;7.03;5.37;;;19.00;58.70;;;;;;4989503;28;20460;-80
2022/11/16 06:36:47;;;;;;;5.87;5.33;;;19.00;58.80;;;;;;4986657;28;20480;-80
2022/11/16 06:39:15;;;;;;;6.20;5.60;;;19.00;58.70;;;;;;4988539;28;20449;-79
2022/11/16 06:41:43;;;;;;;5.73;5.13;;;19.00;58.60;;;;;;4987949;28;20480;-79
2022/11/16 06:44:11;;;;;;;6.00;4.80;;;18.90;58.70;;;;;;4988846;28;20464;-79
2022/11/16 06:46:39;;;;;;;5.70;5.20;;;19.00;58.70;;;;;;4989816;28;20468;-79
2022/11/16 06:49:07;;;;;;;7.10;5.73;;;18.90;58.70;;;;;;4990560;28;20480;-80
2022/11/16 06:51:35;;;;;;;5.90;5.10;;;18.90;58.70;;;;;;4993514;28;20526;-80
2022/11/16 06:54:05;;;;;;;7.27;5.00;;;18.90;58.80;;;;;;4995531;28;20544;-80
2022/11/16 06:56:33;;;;;;;5.60;4.70;;;18.90;58.80;;;;;;4994193;28;20461;-78
2022/11/16 06:59:01;;;;;;;5.50;5.00;;;18.90;58.60;;;;;;4994177;28;20459;-81
2022/11/16 07:01:29;;;;;;;5.93;5.23;;;19.00;58.70;;;;;;4993526;28;20484;-80
2022/11/16 07:03:57;;;;;;;5.67;5.07;;;19.00;58.60;;;;;;4992816;28;20453;-79
2022/11/16 07:06:25;;;;;;;5.83;5.23;;;18.90;58.60;;;;;;4993013;28;20481;-79
2022/11/16 07:08:53;;;;;;;5.20;4.70;;;18.90;58.70;;;;;;4993641;28;20471;-78
2022/11/16 07:11:23;;;;;;;6.40;5.00;;;18.90;58.70;;;;;;4993808;28;20465;-79
2022/11/16 07:13:51;;;;;;;6.23;5.63;;;18.90;58.60;;;;;;4992810;28;20460;-79
2022/11/16 07:16:19;;;;;;;6.10;5.50;;;18.90;58.80;;;;;;4993394;28;20491;-79
2022/11/16 07:18:47;;;;;;;6.07;5.00;;;18.90;58.80;;;;;;4992993;28;20449;-79
2022/11/16 07:21:16;;;;;;;7.60;5.33;;;18.90;58.70;;;;;;4990134;28;20596;-78
2022/11/16 07:23:44;;;;;;;6.00;5.40;;;18.90;58.70;;;;;;4993969;28;20839;-79
2022/11/16 07:26:13;;;;;;;5.87;5.10;;;18.90;58.60;;;;;;4995873;28;20485;-80
2022/11/16 07:28:42;;;;;;;5.97;5.13;;;18.90;58.70;;;;;;4993061;28;20473;-80
2022/11/16 07:31:15;;;;;;;6.03;4.87;;;18.90;58.60;;;;;;4993477;28;20535;-79
2022/11/16 07:33:43;;;;;;;6.50;5.17;;;18.90;58.70;;;;;;4992987;28;20457;-79
2022/11/16 07:36:12;;;;;;;6.57;5.87;;;18.90;58.60;;;;;;4992029;28;20477;-79
2022/11/16 07:38:40;;;;;;;6.57;5.60;;;18.90;58.60;;;;;;4992723;28;20446;-78
2022/11/16 07:41:09;;;;;;;6.27;5.67;;;18.90;58.70;;;;;;4989737;28;20450;-79
2022/11/16 07:43:38;;;;;;;5.97;5.37;;;18.90;58.80;;;;;;4993783;28;20464;-79
2022/11/16 07:46:10;;;;;;;6.70;5.17;;;18.90;58.70;;;;;;4992766;28;20481;-79
2022/11/16 07:48:58;;;;;;;5.90;5.27;;;18.90;58.80;;;;;;4991107;28;20472;-79
2022/11/16 07:51:26;;;;;;;6.17;5.30;;;18.90;58.80;;;;;;4992365;28;20453;-79
2022/11/16 07:53:55;;;;;;;5.60;5.10;;;18.90;58.80;;;;;;4992093;28;20464;-79
2022/11/16 07:56:23;;;;;;;7.13;5.77;;;18.90;58.60;;;;;;4990222;28;20523;-79
2022/11/16 07:58:51;;;;;;;5.93;5.00;;;18.90;58.80;;;;;;4993021;28;20445;-80
2022/11/16 08:01:21;;;;;;;5.30;4.80;;;18.90;58.70;;;;;;4990390;28;20459;-79
2022/11/16 08:03:52;;;;;;;6.90;5.60;;;18.90;58.80;;;;;;4992769;28;20461;-80
2022/11/16 08:06:22;;;;;;;6.50;5.50;;;18.90;58.70;;;;;;4989618;28;20477;-79
2022/11/16 08:08:50;;;;;;;5.33;4.83;;;18.90;58.80;;;;;;4992794;28;20477;-79
2022/11/16 08:11:24;;;;;;;6.37;5.43;;;18.80;58.70;;;;;;4993273;28;20460;-79
2022/11/16 08:13:52;;;;;;;7.20;5.00;;;18.80;58.80;;;;;;4993624;28;20464;-79
2022/11/16 08:16:22;;;;;;;5.77;5.27;;;18.90;58.90;;;;;;4991747;28;20479;-79
2022/11/16 08:18:50;;;;;;;10.00;5.30;;;18.90;58.70;;;;;;4992448;28;20449;-79
2022/11/16 08:21:18;;;;;;;8.50;6.33;;;18.90;58.70;;;;;;4990592;28;20804;-79
2022/11/16 08:23:46;;;;;;;5.97;5.37;;;18.90;58.90;;;;;;4993100;28;20464;-79
2022/11/16 08:26:15;;;;;;;5.83;5.23;;;18.80;58.80;;;;;;4992577;28;20485;-78
2022/11/16 08:28:43;;;;;;;6.23;5.50;;;18.90;58.90;;;;;;4992429;28;20471;-79
2022/11/16 08:31:13;;;;;;;5.40;4.90;;;18.90;58.80;;;;;;4992672;28;20460;-79
2022/11/16 08:33:42;;;;;;;5.87;5.27;;;18.90;58.80;;;;;;4992744;28;20453;-79
2022/11/16 08:36:15;;;;;;;5.73;4.87;;;18.90;58.80;;;;;;4991760;28;20500;-79
2022/11/16 08:38:44;;;;;;;6.30;5.10;;;18.90;58.80;;;;;;4994059;28;20448;-79
2022/11/16 08:41:12;;;;;;;5.20;4.80;;;18.90;58.80;;;;;;4995196;28;20445;-79
2022/11/16 08:43:40;;;;;;;5.70;5.13;;;18.90;58.80;;;;;;4992632;28;20449;-79
2022/11/16 08:46:08;;;;;;;7.40;4.50;;;18.90;58.90;;;;;;4994310;28;20476;-79
2022/11/16 08:48:37;;;;;;;8.03;5.60;;;18.90;58.80;;;;;;4993043;28;20484;-80
2022/11/16 08:51:07;;;;;;;6.07;4.80;;;18.90;59.00;;;;;;4991352;28;20457;-80
2022/11/16 08:53:54;;;;;;;5.83;5.27;;;18.90;58.90;;;;;;4991848;28;20453;-78
2022/11/16 08:56:22;;;;;;;6.10;5.50;;;18.80;58.90;;;;;;4990296;28;20469;-79
2022/11/16 08:58:52;;;;;;;5.60;5.10;;;18.80;58.90;;;;;;4993707;28;20472;-80
2022/11/16 09:01:26;;;;;;;6.17;5.10;;;18.90;58.90;;;;;;4992721;28;20456;-80
2022/11/16 09:03:54;;;;;;;5.33;4.83;;;18.80;59.00;;;;;;4989249;28;20457;-80
2022/11/16 09:06:24;;;;;;;5.90;5.30;;;18.90;58.90;;;;;;4991992;28;20500;-80
2022/11/16 09:08:52;;;;;;;5.30;4.80;;;18.90;58.90;;;;;;4995560;28;20478;-80
2022/11/16 09:11:21;;;;;;;5.97;5.07;;;18.90;59.00;;;;;;4994524;28;20453;-79
2022/11/16 09:13:50;;;;;;;4.70;4.30;;;18.90;58.90;;;;;;4994527;28;20445;-80
2022/11/16 09:16:19;;;;;;;5.97;5.37;;;18.90;58.80;;;;;;4996198;28;20465;-79
2022/11/16 09:18:47;;;;;;;5.60;5.00;;;18.90;59.00;;;;;;4993557;28;20512;-80
2022/11/16 09:21:19;;;;;;;5.77;5.27;;;18.90;59.00;;;;;;4994476;28;20453;-80
2022/11/16 09:23:48;;;;;;;5.30;4.80;;;18.90;58.80;;;;;;4992112;28;20885;-81
2022/11/16 09:26:19;;;;;;;5.07;4.40;;;18.90;59.00;;;;;;4995678;28;20477;-79
2022/11/16 09:28:48;;;;;;;7.37;5.90;;;18.90;58.80;;;;;;4991193;28;20470;-80
2022/11/16 09:31:16;;;;;;;6.63;5.23;;;18.90;58.90;;;;;;4991935;28;20449;-80
2022/11/16 09:33:50;;;;;;;5.20;4.70;;;18.90;59.00;;;;;;4993459;28;20549;-80
2022/11/16 09:36:19;;;;;;;6.60;5.30;;;18.90;59.00;;;;;;4993244;28;20473;-80
2022/11/16 09:38:48;;;;;;;5.70;5.10;;;18.90;58.90;;;;;;4993914;28;20533;-81
2022/11/16 09:41:47;;;;;;;6.13;5.53;;;18.90;59.00;;;;;;4989749;28;20519;-80
2022/11/16 09:44:24;;;;;;;7.77;5.17;;;18.90;59.00;;;;;;4994045;28;20461;-80
2022/11/16 09:46:54;;;;;;;5.43;4.90;;;18.90;59.00;;;;;;4993966;28;20460;-80
2022/11/16 09:49:24;;;;;;;5.90;5.30;;;18.90;59.10;;;;;;4991652;28;20473;-80
2022/11/16 09:51:57;;;;;;;5.10;4.60;;;18.90;58.90;;;;;;4993148;28;20460;-80
2022/11/16 09:54:28;;;;;;;8.90;6.40;;;18.90;59.10;;;;;;4993605;28;20453;-80
2022/11/16 09:56:58;;;;;;;6.50;5.50;;;19.00;59.00;;;;;;4993110;28;20464;-80
2022/11/16 09:59:27;;;;;;;5.30;4.80;;;19.00;59.10;;;;;;4994255;28;20449;-80
2022/11/16 10:01:57;;;;;;;6.33;5.33;;;19.00;59.00;;;;;;4994966;28;20457;-80
2022/11/16 10:04:29;;;;;;;6.10;5.43;;;19.00;59.00;;;;;;4980092;28;20460;-80
2022/11/16 10:06:58;;;;;;;5.80;5.17;;;18.90;59.00;;;;;;4995360;28;20438;-81
2022/11/16 10:09:27;;;;;;;5.23;4.73;;;18.90;59.10;;;;;;4994513;28;20484;-81
2022/11/16 10:11:59;;;;;;;6.00;5.20;;;18.90;59.00;;;;;;4995824;28;20437;-81
2022/11/16 10:15:12;;;;;;;5.37;4.90;;;19.00;59.00;;;;;;4994828;28;20437;-81
2022/11/16 10:17:46;;;;;;;8.03;5.33;;;19.00;59.00;;;;;;4995511;28;20429;-81
2022/11/16 10:20:29;;;;;;;6.73;4.20;;;18.90;59.20;;;;;;4994184;28;20433;-80
2022/11/16 10:23:02;;;;;;;5.93;5.30;;;18.90;59.00;;;;;;5000691;28;20463;-80
2022/11/16 10:25:33;;;;;;;5.30;4.80;;;19.00;59.20;;;;;;5005737;28;20491;-81
2022/11/16 10:28:18;;;;;;;6.97;5.30;;;19.00;59.20;;;;;;4998564;28;20456;-81
2022/11/16 10:30:48;;;;;;;5.70;5.20;;;19.00;59.00;;;;;;4998491;28;20468;-80
2022/11/16 10:33:18;;;;;;;7.63;5.10;;;19.00;59.20;;;;;;4996434;28;20464;-78
2022/11/16 10:35:48;;;;;;;5.50;5.00;;;19.00;59.20;;;;;;4997597;28;20464;-79
2022/11/16 10:38:17;;;;;;;6.57;5.13;;;19.00;59.40;;;;;;4997979;28;20457;-79
2022/11/16 10:40:51;;;;;;;5.37;4.87;;;19.00;59.20;;;;;;5001770;28;20443;-79
2022/11/16 10:43:20;;;;;;;5.87;5.27;;;19.00;59.10;;;;;;5009331;28;20445;-79
2022/11/16 10:45:51;;;;;;;6.13;5.53;;;19.00;59.30;;;;;;4993686;28;20463;-79
2022/11/16 10:48:25;;;;;;;5.37;4.90;;;19.00;59.30;;;;;;4997060;28;20446;-79
2022/11/16 10:50:53;;;;;;;5.63;5.13;;;19.00;59.20;;;;;;4998682;28;20491;-78
2022/11/16 10:53:26;;;;;;;6.13;4.83;;;19.00;59.30;;;;;;5000308;28;20453;-79
2022/11/16 10:56:06;;;;;;;5.73;5.20;;;19.00;59.30;;;;;;5001751;28;20467;-79
2022/11/16 10:58:51;;;;;;;5.30;4.80;;;19.00;59.20;;;;;;4998355;28;20432;-79
2022/11/16 11:01:34;;;;;;;6.03;5.43;;;19.00;59.30;;;;;;4998203;28;20437;-79
2022/11/16 11:04:20;;;;;;;5.30;4.80;;;19.00;59.30;;;;;;4996993;28;20453;-79
2022/11/16 11:06:50;;;;;;;6.17;4.90;;;18.90;59.20;;;;;;4997253;28;20461;-81
2022/11/16 11:09:26;;;;;;;6.80;5.00;;;18.90;59.40;;;;;;4999520;28;20452;-79
2022/11/16 11:15:00;;;;;;;6.50;5.20;;;18.90;59.30;;;;;;4995543;28;20469;-79
2022/11/16 11:17:28;;;;;;;5.57;5.07;;;18.90;59.50;;;;;;4997295;28;20469;-79
2022/11/16 11:20:00;;;;;;;7.00;5.33;;;18.90;59.40;;;;;;4996847;28;20847;-79
2022/11/16 11:22:28;;;;;;;5.43;4.90;;;18.90;59.50;;;;;;4996347;28;20448;-79
2022/11/16 11:24:56;;;;;;;6.50;5.17;;;18.90;59.40;;;;;;4989723;28;20492;-77
2022/11/16 11:27:28;;;;;;;6.67;5.50;;;18.90;59.50;;;;;;4996118;28;20855;-78
2022/11/16 11:29:57;;;;;;;5.53;5.03;;;18.90;59.50;;;;;;4996780;28;20473;-80
2022/11/16 11:32:32;;;;;;;8.60;5.20;;;18.90;59.40;;;;;;4997516;28;20456;-80
2022/11/16 11:35:00;;;;;;;5.63;5.10;;;18.90;59.60;;;;;;4996549;28;20472;-79
2022/11/16 11:37:30;;;;;;;5.90;5.30;;;18.90;59.50;;;;;;4996287;28;20445;-80
2022/11/16 11:40:22;;;;;;;6.33;5.73;;;18.90;59.50;;;;;;4996715;28;20449;-79
2022/11/16 11:42:57;;;;;;;6.60;5.37;;;18.90;59.60;;;;;;4982537;28;20438;-79
2022/11/16 11:45:32;;;;;;;5.40;4.90;;;18.90;59.80;;;;;;4996307;28;20471;-79
2022/11/16 11:48:01;;;;;;;5.43;4.90;;;18.90;59.70;;;;;;4995677;28;20452;-78
2022/11/16 11:50:42;;;;;;;5.77;5.27;;;18.90;59.70;;;;;;4995085;28;20465;-78
2022/11/16 11:53:16;;;;;;;5.40;4.90;;;19.00;59.60;;;;;;4996403;28;20453;-78
2022/11/16 11:55:44;;;;;;;6.03;5.23;;;19.00;59.60;;;;;;4977281;28;20477;-78
2022/11/16 11:58:15;;;;;;;4.97;4.57;;;18.90;59.50;;;;;;4996506;28;20436;-77
2022/11/16 12:00:46;;;;;;;5.70;5.10;;;18.90;59.50;;;;;;4996403;28;20445;-78
2022/11/16 12:03:33;;;;;;;5.90;5.07;;;18.90;59.70;;;;;;4996901;28;20428;-78
2022/11/16 12:06:10;;;;;;;6.00;5.40;;;18.90;59.60;;;;;;4995559;28;20465;-79
2022/11/16 12:09:02;;;;;;;6.10;5.50;;;18.90;59.70;;;;;;4994891;28;20457;-79
2022/11/16 12:11:35;;;;;;;7.27;4.93;;;18.90;59.60;;;;;;4989108;28;20461;-79
2022/11/16 12:14:10;;;;;;;5.80;4.80;;;18.90;59.70;;;;;;4995964;28;20442;-79
2022/11/16 12:16:41;;;;;;;4.97;4.57;;;18.90;59.70;;;;;;4995603;28;20476;-79
2022/11/16 12:19:27;;;;;;;6.70;5.50;;;18.90;59.70;;;;;;4997135;28;20449;-79
2022/11/16 12:22:02;;;;;;;5.97;5.37;;;18.90;59.80;;;;;;4997409;28;20448;-79
2022/11/16 12:24:37;;;;;;;6.07;5.07;;;18.90;59.70;;;;;;4997899;28;20452;-79
2022/11/16 12:27:10;;;;;;;5.40;4.90;;;18.90;59.70;;;;;;4997391;28;20451;-80
2022/11/16 12:29:43;;;;;;;4.97;4.53;;;19.00;59.80;;;;;;4996617;28;20460;-79
2022/11/16 12:32:28;;;;;;;5.67;5.07;;;19.00;59.80;;;;;;4995591;28;20473;-80
2022/11/16 12:35:14;;;;;;;4.87;4.47;;;19.00;59.60;;;;;;4997110;28;20528;-79
2022/11/16 12:37:54;;;;;;;5.37;4.87;;;19.00;59.70;;;;;;4997501;28;20448;-79
2022/11/16 12:40:30;;;;;;;6.23;4.67;;;19.00;60.40;;;;;;4997552;28;20421;-79
2022/11/16 12:42:59;;;;;;;5.53;5.03;;;19.00;59.80;;;;;;4997557;28;20435;-79
2022/11/16 12:45:50;;;;;;;5.40;4.90;;;19.10;59.80;;;;;;4997288;28;20457;-79
2022/11/16 12:48:26;;;;;;;5.40;4.87;;;19.00;59.50;;;;;;4995681;28;20460;-79
2022/11/16 12:50:56;;;;;;;4.63;4.23;;;19.00;59.60;;;;;;4996502;28;20465;-79
2022/11/16 12:53:47;;;;;;;5.20;4.80;;;19.00;59.70;;;;;;4996784;28;20453;-80
2022/11/16 12:56:20;;;;;;;4.90;4.50;;;19.00;59.60;;;;;;4997168;28;20479;-79
2022/11/16 12:58:57;;;;;;;5.63;5.00;;;19.00;59.80;;;;;;4997018;28;20473;-79
2022/11/16 13:01:31;;;;;;;5.57;5.00;;;19.00;59.80;;;;;;4996547;28;20441;-79
2022/11/16 13:04:02;;;;;;;5.03;4.63;;;19.00;59.80;;;;;;4995581;28;20487;-79
2022/11/16 13:06:31;;;;;;;5.03;4.63;;;19.00;59.90;;;;;;4995729;28;20465;-79
2022/11/16 13:09:03;;;;;;;6.20;5.60;;;19.00;59.80;;;;;;4996759;28;20445;-79
2022/11/16 13:11:33;;;;;;;5.33;4.83;;;19.00;59.80;;;;;;4996023;28;20470;-79
2022/11/16 13:14:02;;;;;;;5.03;4.57;;;19.00;59.80;;;;;;4996734;28;20449;-79
2022/11/16 13:16:31;;;;;;;6.13;5.53;;;19.00;59.70;;;;;;4996320;28;20465;-79
2022/11/16 13:18:59;;;;;;;5.67;5.07;;;19.00;59.70;;;;;;4996010;28;20449;-77
2022/11/16 13:21:39;;;;;;;5.70;5.10;;;19.00;59.90;;;;;;4993722;28;20449;-78
2022/11/16 13:24:20;;;;;;;6.40;4.97;;;19.00;59.80;;;;;;4996062;28;20460;-79
2022/11/16 13:26:53;;;;;;;5.40;4.90;;;19.00;59.80;;;;;;4995730;28;20483;-79
2022/11/16 13:29:26;;;;;;;5.53;5.03;;;19.00;59.80;;;;;;4986953;28;20448;-80
2022/11/16 13:31:57;;;;;;;5.53;5.07;;;19.00;59.80;;;;;;4993943;28;20472;-79
2022/11/16 13:34:26;;;;;;;5.57;5.07;;;18.90;59.70;;;;;;4994272;28;20453;-81
2022/11/16 13:36:54;;;;;;;5.80;5.23;;;18.90;59.80;;;;;;4993492;28;20453;-80
2022/11/16 13:40:07;;;;;;;6.07;5.47;;;19.00;59.70;;;;;;4984311;28;20457;-80
2022/11/16 13:42:38;;;;;;;7.10;5.70;;;19.00;59.80;;;;;;4985368;28;20465;-80
2022/11/16 13:45:07;;;;;;;6.50;5.83;;;18.90;59.50;;;;;;4993373;28;20484;-80
2022/11/16 13:47:37;;;;;;;6.87;6.20;;;18.90;59.60;;;;;;4990082;28;20461;-80
2022/11/16 13:50:06;;;;;;;6.83;6.10;;;18.90;59.70;;;;;;4994300;28;20459;-80
2022/11/16 13:52:41;;;;;;;7.20;6.07;;;18.90;59.70;;;;;;4996217;28;20480;-79